sensor_id;sensor_type;location;lat;lon;timestamp;P1;durP1;ratioP1;P2;durP2;ratioP2
77955;SDS011;67152;36.266;32.294;2023-05-07T00:02:12;8.07;;;3.78;;
77955;SDS011;67152;36.266;32.294;2023-05-07T00:04:40;11.35;;;4.80;;
77955;SDS011;67152;36.266;32.294;2023-05-07T00:07:08;9.23;;;5.18;;
77955;SDS011;67152;36.266;32.294;2023-05-07T00:09:35;9.90;;;5.03;;
77955;SDS011;67152;36.266;32.294;2023-05-07T00:12:02;12.55;;;4.88;;
77955;SDS011;67152;36.266;32.294;2023-05-07T00:14:30;10.20;;;4.97;;
77955;SDS011;67152;36.266;32.294;2023-05-07T00:16:57;10.32;;;3.53;;
77955;SDS011;67152;36.266;32.294;2023-05-07T00:19:27;9.77;;;4.38;;
77955;SDS011;67152;36.266;32.294;2023-05-07T00:21:59;7.75;;;4.40;;
77955;SDS011;67152;36.266;32.294;2023-05-07T00:24:26;8.60;;;4.28;;
77955;SDS011;67152;36.266;32.294;2023-05-07T00:26:59;8.27;;;3.72;;
77955;SDS011;67152;36.266;32.294;2023-05-07T00:29:28;11.10;;;4.13;;
77955;SDS011;67152;36.266;32.294;2023-05-07T00:31:58;10.13;;;3.90;;
77955;SDS011;67152;36.266;32.294;2023-05-07T00:34:27;10.55;;;4.05;;
77955;SDS011;67152;36.266;32.294;2023-05-07T00:36:57;6.57;;;3.15;;
77955;SDS011;67152;36.266;32.294;2023-05-07T00:39:25;10.40;;;4.40;;
77955;SDS011;67152;36.266;32.294;2023-05-07T00:41:53;6.97;;;4.03;;
77955;SDS011;67152;36.266;32.294;2023-05-07T00:44:21;13.43;;;4.43;;
77955;SDS011;67152;36.266;32.294;2023-05-07T00:46:47;14.85;;;5.30;;
77955;SDS011;67152;36.266;32.294;2023-05-07T00:49:16;12.25;;;5.30;;
77955;SDS011;67152;36.266;32.294;2023-05-07T00:51:43;11.93;;;4.68;;
77955;SDS011;67152;36.266;32.294;2023-05-07T00:54:10;10.10;;;5.13;;
77955;SDS011;67152;36.266;32.294;2023-05-07T00:56:37;16.67;;;5.15;;
77955;SDS011;67152;36.266;32.294;2023-05-07T00:59:05;14.98;;;5.65;;
77955;SDS011;67152;36.266;32.294;2023-05-07T01:01:32;9.90;;;4.82;;
77955;SDS011;67152;36.266;32.294;2023-05-07T01:03:58;11.25;;;4.32;;
77955;SDS011;67152;36.266;32.294;2023-05-07T01:06:25;9.48;;;4.45;;
77955;SDS011;67152;36.266;32.294;2023-05-07T01:08:53;7.90;;;4.38;;
77955;SDS011;67152;36.266;32.294;2023-05-07T01:11:22;8.13;;;4.30;;
77955;SDS011;67152;36.266;32.294;2023-05-07T01:13:49;7.45;;;4.25;;
77955;SDS011;67152;36.266;32.294;2023-05-07T01:16:16;4.10;;;3.00;;
77955;SDS011;67152;36.266;32.294;2023-05-07T01:18:43;13.38;;;4.47;;
77955;SDS011;67152;36.266;32.294;2023-05-07T01:21:13;9.98;;;4.25;;
77955;SDS011;67152;36.266;32.294;2023-05-07T01:23:42;8.90;;;4.57;;
77955;SDS011;67152;36.266;32.294;2023-05-07T01:26:10;10.00;;;4.72;;
77955;SDS011;67152;36.266;32.294;2023-05-07T01:28:36;6.50;;;4.10;;
77955;SDS011;67152;36.266;32.294;2023-05-07T01:31:03;10.68;;;4.40;;
77955;SDS011;67152;36.266;32.294;2023-05-07T01:33:33;11.35;;;4.05;;
77955;SDS011;67152;36.266;32.294;2023-05-07T01:36:00;10.40;;;4.95;;
77955;SDS011;67152;36.266;32.294;2023-05-07T01:38:29;10.15;;;5.03;;
77955;SDS011;67152;36.266;32.294;2023-05-07T01:40:56;11.93;;;6.35;;
77955;SDS011;67152;36.266;32.294;2023-05-07T01:43:23;8.98;;;5.75;;
77955;SDS011;67152;36.266;32.294;2023-05-07T01:45:50;9.38;;;5.40;;
77955;SDS011;67152;36.266;32.294;2023-05-07T01:48:17;10.25;;;4.70;;
77955;SDS011;67152;36.266;32.294;2023-05-07T01:50:44;15.03;;;5.53;;
77955;SDS011;67152;36.266;32.294;2023-05-07T01:53:10;9.43;;;4.85;;
77955;SDS011;67152;36.266;32.294;2023-05-07T01:55:37;12.82;;;4.88;;
77955;SDS011;67152;36.266;32.294;2023-05-07T01:58:05;12.00;;;5.55;;
77955;SDS011;67152;36.266;32.294;2023-05-07T02:00:32;11.05;;;5.25;;
77955;SDS011;67152;36.266;32.294;2023-05-07T02:02:59;10.55;;;4.10;;
77955;SDS011;67152;36.266;32.294;2023-05-07T02:05:25;7.68;;;4.65;;
77955;SDS011;67152;36.266;32.294;2023-05-07T02:07:52;7.32;;;3.70;;
77955;SDS011;67152;36.266;32.294;2023-05-07T02:10:18;9.20;;;4.93;;
77955;SDS011;67152;36.266;32.294;2023-05-07T02:12:45;13.43;;;4.70;;
77955;SDS011;67152;36.266;32.294;2023-05-07T02:15:11;10.77;;;4.95;;
77955;SDS011;67152;36.266;32.294;2023-05-07T02:17:39;10.15;;;4.60;;
77955;SDS011;67152;36.266;32.294;2023-05-07T02:20:27;9.90;;;4.30;;
77955;SDS011;67152;36.266;32.294;2023-05-07T02:22:54;10.02;;;4.63;;
77955;SDS011;67152;36.266;32.294;2023-05-07T02:25:21;10.02;;;5.32;;
77955;SDS011;67152;36.266;32.294;2023-05-07T02:27:47;12.25;;;6.05;;
77955;SDS011;67152;36.266;32.294;2023-05-07T02:30:14;13.60;;;6.10;;
77955;SDS011;67152;36.266;32.294;2023-05-07T02:32:41;14.68;;;5.95;;
77955;SDS011;67152;36.266;32.294;2023-05-07T02:35:07;12.10;;;4.20;;
77955;SDS011;67152;36.266;32.294;2023-05-07T02:37:34;9.48;;;4.13;;
77955;SDS011;67152;36.266;32.294;2023-05-07T02:40:01;14.05;;;4.80;;
77955;SDS011;67152;36.266;32.294;2023-05-07T02:42:29;12.55;;;4.60;;
77955;SDS011;67152;36.266;32.294;2023-05-07T02:44:55;9.18;;;4.60;;
77955;SDS011;67152;36.266;32.294;2023-05-07T02:47:22;11.05;;;5.47;;
77955;SDS011;67152;36.266;32.294;2023-05-07T02:49:48;12.98;;;5.03;;
77955;SDS011;67152;36.266;32.294;2023-05-07T02:52:15;15.05;;;5.47;;
77955;SDS011;67152;36.266;32.294;2023-05-07T02:54:42;9.68;;;4.63;;
77955;SDS011;67152;36.266;32.294;2023-05-07T02:57:08;8.10;;;3.55;;
77955;SDS011;67152;36.266;32.294;2023-05-07T02:59:34;7.47;;;3.88;;
77955;SDS011;67152;36.266;32.294;2023-05-07T03:02:01;12.55;;;4.82;;
77955;SDS011;67152;36.266;32.294;2023-05-07T03:04:27;8.63;;;4.60;;
77955;SDS011;67152;36.266;32.294;2023-05-07T03:06:54;11.77;;;4.50;;
77955;SDS011;67152;36.266;32.294;2023-05-07T03:09:21;9.55;;;4.80;;
77955;SDS011;67152;36.266;32.294;2023-05-07T03:11:47;13.05;;;5.63;;
77955;SDS011;67152;36.266;32.294;2023-05-07T03:14:14;12.65;;;5.25;;
77955;SDS011;67152;36.266;32.294;2023-05-07T03:16:40;13.48;;;5.07;;
77955;SDS011;67152;36.266;32.294;2023-05-07T03:19:07;12.82;;;5.70;;
77955;SDS011;67152;36.266;32.294;2023-05-07T03:21:33;14.98;;;5.35;;
77955;SDS011;67152;36.266;32.294;2023-05-07T03:24:00;9.98;;;5.32;;
77955;SDS011;67152;36.266;32.294;2023-05-07T03:26:27;19.73;;;5.10;;
77955;SDS011;67152;36.266;32.294;2023-05-07T03:28:54;12.43;;;4.25;;
77955;SDS011;67152;36.266;32.294;2023-05-07T03:33:54;9.02;;;4.70;;
77955;SDS011;67152;36.266;32.294;2023-05-07T03:36:21;13.27;;;4.53;;
77955;SDS011;67152;36.266;32.294;2023-05-07T03:38:49;10.45;;;4.30;;
77955;SDS011;67152;36.266;32.294;2023-05-07T03:41:15;11.60;;;4.55;;
77955;SDS011;67152;36.266;32.294;2023-05-07T03:43:42;10.10;;;4.63;;
77955;SDS011;67152;36.266;32.294;2023-05-07T03:46:08;11.90;;;4.90;;
77955;SDS011;67152;36.266;32.294;2023-05-07T03:48:35;10.50;;;4.53;;
77955;SDS011;67152;36.266;32.294;2023-05-07T03:51:01;10.80;;;3.83;;
77955;SDS011;67152;36.266;32.294;2023-05-07T03:53:28;8.52;;;3.80;;
77955;SDS011;67152;36.266;32.294;2023-05-07T03:55:54;9.25;;;3.40;;
77955;SDS011;67152;36.266;32.294;2023-05-07T03:58:21;7.88;;;3.95;;
77955;SDS011;67152;36.266;32.294;2023-05-07T04:00:47;10.00;;;4.72;;
77955;SDS011;67152;36.266;32.294;2023-05-07T04:03:14;15.80;;;4.32;;
77955;SDS011;67152;36.266;32.294;2023-05-07T04:05:41;9.85;;;4.60;;
77955;SDS011;67152;36.266;32.294;2023-05-07T04:08:07;9.57;;;4.53;;
77955;SDS011;67152;36.266;32.294;2023-05-07T04:10:34;10.23;;;3.88;;
77955;SDS011;67152;36.266;32.294;2023-05-07T04:13:00;7.53;;;3.42;;
77955;SDS011;67152;36.266;32.294;2023-05-07T04:15:27;6.28;;;3.67;;
77955;SDS011;67152;36.266;32.294;2023-05-07T04:17:54;10.93;;;4.20;;
77955;SDS011;67152;36.266;32.294;2023-05-07T04:20:20;5.38;;;3.47;;
77955;SDS011;67152;36.266;32.294;2023-05-07T04:22:47;12.02;;;3.60;;
77955;SDS011;67152;36.266;32.294;2023-05-07T04:25:13;8.63;;;3.38;;
77955;SDS011;67152;36.266;32.294;2023-05-07T04:27:40;7.80;;;3.28;;
77955;SDS011;67152;36.266;32.294;2023-05-07T04:30:06;12.43;;;3.55;;
77955;SDS011;67152;36.266;32.294;2023-05-07T04:32:33;8.20;;;3.75;;
77955;SDS011;67152;36.266;32.294;2023-05-07T04:35:00;9.93;;;3.30;;
77955;SDS011;67152;36.266;32.294;2023-05-07T04:37:26;10.23;;;3.28;;
77955;SDS011;67152;36.266;32.294;2023-05-07T04:39:53;11.77;;;3.30;;
77955;SDS011;67152;36.266;32.294;2023-05-07T04:42:19;10.03;;;3.50;;
77955;SDS011;67152;36.266;32.294;2023-05-07T04:44:46;9.20;;;3.20;;
77955;SDS011;67152;36.266;32.294;2023-05-07T04:47:12;6.75;;;3.40;;
77955;SDS011;67152;36.266;32.294;2023-05-07T04:49:39;5.73;;;2.67;;
77955;SDS011;67152;36.266;32.294;2023-05-07T04:52:06;9.30;;;3.33;;
77955;SDS011;67152;36.266;32.294;2023-05-07T04:54:32;5.88;;;3.08;;
77955;SDS011;67152;36.266;32.294;2023-05-07T04:56:59;15.60;;;3.53;;
77955;SDS011;67152;36.266;32.294;2023-05-07T04:59:25;12.82;;;3.42;;
77955;SDS011;67152;36.266;32.294;2023-05-07T05:01:52;8.55;;;3.25;;
77955;SDS011;67152;36.266;32.294;2023-05-07T05:04:18;11.35;;;3.53;;
77955;SDS011;67152;36.266;32.294;2023-05-07T05:06:45;9.75;;;3.50;;
77955;SDS011;67152;36.266;32.294;2023-05-07T05:09:11;10.80;;;3.63;;
77955;SDS011;67152;36.266;32.294;2023-05-07T05:11:38;16.85;;;3.60;;
77955;SDS011;67152;36.266;32.294;2023-05-07T05:14:04;9.65;;;4.15;;
77955;SDS011;67152;36.266;32.294;2023-05-07T05:16:31;6.85;;;3.13;;
77955;SDS011;67152;36.266;32.294;2023-05-07T05:18:58;10.45;;;3.00;;
77955;SDS011;67152;36.266;32.294;2023-05-07T05:21:25;9.88;;;3.35;;
77955;SDS011;67152;36.266;32.294;2023-05-07T05:23:51;10.20;;;3.53;;
77955;SDS011;67152;36.266;32.294;2023-05-07T05:26:18;11.93;;;3.30;;
77955;SDS011;67152;36.266;32.294;2023-05-07T05:28:44;9.18;;;3.40;;
77955;SDS011;67152;36.266;32.294;2023-05-07T05:31:31;15.48;;;4.22;;
77955;SDS011;67152;36.266;32.294;2023-05-07T05:33:57;9.45;;;3.83;;
77955;SDS011;67152;36.266;32.294;2023-05-07T05:36:24;11.02;;;4.07;;
77955;SDS011;67152;36.266;32.294;2023-05-07T05:38:51;9.98;;;3.75;;
77955;SDS011;67152;36.266;32.294;2023-05-07T05:41:18;6.18;;;3.33;;
77955;SDS011;67152;36.266;32.294;2023-05-07T05:43:44;10.50;;;3.50;;
77955;SDS011;67152;36.266;32.294;2023-05-07T05:46:11;8.73;;;3.10;;
77955;SDS011;67152;36.266;32.294;2023-05-07T05:48:37;8.43;;;3.70;;
77955;SDS011;67152;36.266;32.294;2023-05-07T05:51:04;7.50;;;3.63;;
77955;SDS011;67152;36.266;32.294;2023-05-07T05:53:30;8.93;;;3.95;;
77955;SDS011;67152;36.266;32.294;2023-05-07T05:55:57;8.10;;;3.83;;
77955;SDS011;67152;36.266;32.294;2023-05-07T05:58:23;11.20;;;4.35;;
77955;SDS011;67152;36.266;32.294;2023-05-07T06:00:50;10.93;;;3.88;;
77955;SDS011;67152;36.266;32.294;2023-05-07T06:03:18;8.77;;;3.90;;
77955;SDS011;67152;36.266;32.294;2023-05-07T06:05:44;14.77;;;3.97;;
77955;SDS011;67152;36.266;32.294;2023-05-07T06:08:11;7.55;;;3.65;;
77955;SDS011;67152;36.266;32.294;2023-05-07T06:10:37;12.73;;;3.83;;
77955;SDS011;67152;36.266;32.294;2023-05-07T06:13:04;11.40;;;3.97;;
77955;SDS011;67152;36.266;32.294;2023-05-07T06:15:31;13.63;;;4.20;;
77955;SDS011;67152;36.266;32.294;2023-05-07T06:17:57;14.77;;;4.55;;
77955;SDS011;67152;36.266;32.294;2023-05-07T06:20:24;15.90;;;4.63;;
77955;SDS011;67152;36.266;32.294;2023-05-07T06:22:51;17.40;;;5.03;;
77955;SDS011;67152;36.266;32.294;2023-05-07T06:25:17;20.30;;;4.68;;
77955;SDS011;67152;36.266;32.294;2023-05-07T06:27:44;13.25;;;4.93;;
77955;SDS011;67152;36.266;32.294;2023-05-07T06:30:11;12.48;;;5.25;;
77955;SDS011;67152;36.266;32.294;2023-05-07T06:32:39;9.82;;;4.00;;
77955;SDS011;67152;36.266;32.294;2023-05-07T06:35:07;18.23;;;5.57;;
77955;SDS011;67152;36.266;32.294;2023-05-07T06:37:34;16.80;;;5.10;;
77955;SDS011;67152;36.266;32.294;2023-05-07T06:40:01;18.10;;;5.93;;
77955;SDS011;67152;36.266;32.294;2023-05-07T06:42:28;13.13;;;5.15;;
77955;SDS011;67152;36.266;32.294;2023-05-07T06:44:54;16.45;;;5.35;;
77955;SDS011;67152;36.266;32.294;2023-05-07T06:47:21;24.20;;;5.93;;
77955;SDS011;67152;36.266;32.294;2023-05-07T06:49:48;14.90;;;5.68;;
77955;SDS011;67152;36.266;32.294;2023-05-07T06:52:14;16.58;;;6.25;;
77955;SDS011;67152;36.266;32.294;2023-05-07T06:57:08;20.08;;;5.80;;
77955;SDS011;67152;36.266;32.294;2023-05-07T06:59:34;18.73;;;5.88;;
77955;SDS011;67152;36.266;32.294;2023-05-07T07:02:01;19.67;;;5.35;;
77955;SDS011;67152;36.266;32.294;2023-05-07T07:04:28;17.50;;;5.85;;
77955;SDS011;67152;36.266;32.294;2023-05-07T07:06:54;18.23;;;5.53;;
77955;SDS011;67152;36.266;32.294;2023-05-07T07:09:22;17.95;;;6.35;;
77955;SDS011;67152;36.266;32.294;2023-05-07T07:11:49;15.25;;;5.80;;
77955;SDS011;67152;36.266;32.294;2023-05-07T07:14:16;14.52;;;5.35;;
77955;SDS011;67152;36.266;32.294;2023-05-07T07:16:42;12.82;;;4.78;;
77955;SDS011;67152;36.266;32.294;2023-05-07T07:19:09;18.60;;;6.07;;
77955;SDS011;67152;36.266;32.294;2023-05-07T07:21:36;17.20;;;5.30;;
77955;SDS011;67152;36.266;32.294;2023-05-07T07:24:03;16.67;;;5.20;;
77955;SDS011;67152;36.266;32.294;2023-05-07T07:26:29;18.25;;;6.15;;
77955;SDS011;67152;36.266;32.294;2023-05-07T07:28:57;18.00;;;5.57;;
77955;SDS011;67152;36.266;32.294;2023-05-07T07:31:23;16.50;;;5.35;;
77955;SDS011;67152;36.266;32.294;2023-05-07T07:33:50;14.93;;;5.03;;
77955;SDS011;67152;36.266;32.294;2023-05-07T07:36:17;17.88;;;4.85;;
77955;SDS011;67152;36.266;32.294;2023-05-07T07:38:44;19.10;;;5.07;;
77955;SDS011;67152;36.266;32.294;2023-05-07T07:41:10;21.00;;;5.65;;
77955;SDS011;67152;36.266;32.294;2023-05-07T07:43:37;18.02;;;5.35;;
77955;SDS011;67152;36.266;32.294;2023-05-07T07:46:04;14.57;;;5.30;;
77955;SDS011;67152;36.266;32.294;2023-05-07T07:48:30;18.23;;;5.13;;
77955;SDS011;67152;36.266;32.294;2023-05-07T07:50:57;13.05;;;4.80;;
77955;SDS011;67152;36.266;32.294;2023-05-07T07:53:24;12.48;;;4.80;;
77955;SDS011;67152;36.266;32.294;2023-05-07T07:58:17;15.40;;;5.10;;
77955;SDS011;67152;36.266;32.294;2023-05-07T08:00:44;12.75;;;4.20;;
77955;SDS011;67152;36.266;32.294;2023-05-07T08:03:11;14.60;;;4.85;;
77955;SDS011;67152;36.266;32.294;2023-05-07T08:05:37;18.50;;;5.30;;
77955;SDS011;67152;36.266;32.294;2023-05-07T08:08:04;11.13;;;4.63;;
77955;SDS011;67152;36.266;32.294;2023-05-07T08:10:32;15.63;;;4.53;;
77955;SDS011;67152;36.266;32.294;2023-05-07T08:13:00;12.82;;;5.25;;
77955;SDS011;67152;36.266;32.294;2023-05-07T08:15:29;18.48;;;4.88;;
77955;SDS011;67152;36.266;32.294;2023-05-07T08:17:57;19.98;;;5.10;;
77955;SDS011;67152;36.266;32.294;2023-05-07T08:20:26;11.48;;;4.45;;
77955;SDS011;67152;36.266;32.294;2023-05-07T08:22:54;11.65;;;4.80;;
77955;SDS011;67152;36.266;32.294;2023-05-07T08:25:21;16.77;;;5.00;;
77955;SDS011;67152;36.266;32.294;2023-05-07T08:27:47;11.43;;;4.22;;
77955;SDS011;67152;36.266;32.294;2023-05-07T08:30:14;13.30;;;4.10;;
77955;SDS011;67152;36.266;32.294;2023-05-07T08:35:08;16.15;;;5.07;;
77955;SDS011;67152;36.266;32.294;2023-05-07T08:37:35;13.43;;;3.92;;
77955;SDS011;67152;36.266;32.294;2023-05-07T08:42:29;13.70;;;4.78;;
77955;SDS011;67152;36.266;32.294;2023-05-07T08:44:57;11.73;;;4.28;;
77955;SDS011;67152;36.266;32.294;2023-05-07T08:47:28;11.48;;;4.93;;
77955;SDS011;67152;36.266;32.294;2023-05-07T08:50:00;12.63;;;4.78;;
77955;SDS011;67152;36.266;32.294;2023-05-07T08:52:28;14.43;;;4.82;;
77955;SDS011;67152;36.266;32.294;2023-05-07T08:54:54;14.43;;;4.60;;
77955;SDS011;67152;36.266;32.294;2023-05-07T08:57:21;15.20;;;4.63;;
77955;SDS011;67152;36.266;32.294;2023-05-07T08:59:50;18.15;;;4.80;;
77955;SDS011;67152;36.266;32.294;2023-05-07T09:02:23;14.20;;;4.65;;
77955;SDS011;67152;36.266;32.294;2023-05-07T09:04:52;13.02;;;4.13;;
77955;SDS011;67152;36.266;32.294;2023-05-07T09:07:19;13.43;;;4.60;;
77955;SDS011;67152;36.266;32.294;2023-05-07T09:09:46;11.98;;;4.30;;
77955;SDS011;67152;36.266;32.294;2023-05-07T09:12:14;13.02;;;4.50;;
77955;SDS011;67152;36.266;32.294;2023-05-07T09:14:41;13.45;;;4.18;;
77955;SDS011;67152;36.266;32.294;2023-05-07T09:17:08;9.35;;;4.15;;
77955;SDS011;67152;36.266;32.294;2023-05-07T09:19:35;16.92;;;4.40;;
77955;SDS011;67152;36.266;32.294;2023-05-07T09:22:02;14.75;;;4.30;;
77955;SDS011;67152;36.266;32.294;2023-05-07T09:24:30;9.68;;;3.90;;
77955;SDS011;67152;36.266;32.294;2023-05-07T09:27:01;10.88;;;4.25;;
77955;SDS011;67152;36.266;32.294;2023-05-07T09:29:28;11.82;;;4.35;;
77955;SDS011;67152;36.266;32.294;2023-05-07T09:31:59;10.93;;;3.70;;
77955;SDS011;67152;36.266;32.294;2023-05-07T09:34:25;16.75;;;4.05;;
77955;SDS011;67152;36.266;32.294;2023-05-07T09:36:52;10.50;;;4.82;;
77955;SDS011;67152;36.266;32.294;2023-05-07T09:39:20;13.68;;;4.18;;
77955;SDS011;67152;36.266;32.294;2023-05-07T09:44:15;15.35;;;3.95;;
77955;SDS011;67152;36.266;32.294;2023-05-07T09:51:41;14.90;;;4.57;;
77955;SDS011;67152;36.266;32.294;2023-05-07T09:54:12;30.92;;;6.65;;
77955;SDS011;67152;36.266;32.294;2023-05-07T09:59:07;11.48;;;4.10;;
77955;SDS011;67152;36.266;32.294;2023-05-07T10:04:02;8.50;;;3.58;;
77955;SDS011;67152;36.266;32.294;2023-05-07T10:06:34;13.10;;;4.18;;
77955;SDS011;67152;36.266;32.294;2023-05-07T10:09:04;14.38;;;4.22;;
77955;SDS011;67152;36.266;32.294;2023-05-07T10:11:32;9.18;;;3.50;;
77955;SDS011;67152;36.266;32.294;2023-05-07T10:14:00;10.80;;;3.92;;
77955;SDS011;67152;36.266;32.294;2023-05-07T10:16:36;14.80;;;4.10;;
77955;SDS011;67152;36.266;32.294;2023-05-07T10:19:23;9.18;;;3.95;;
77955;SDS011;67152;36.266;32.294;2023-05-07T10:22:00;11.13;;;3.95;;
77955;SDS011;67152;36.266;32.294;2023-05-07T10:24:31;9.60;;;3.40;;
77955;SDS011;67152;36.266;32.294;2023-05-07T10:27:00;13.00;;;4.00;;
77955;SDS011;67152;36.266;32.294;2023-05-07T10:35:00;8.73;;;3.10;;
77955;SDS011;67152;36.266;32.294;2023-05-07T10:37:28;8.40;;;3.13;;
77955;SDS011;67152;36.266;32.294;2023-05-07T10:39:56;10.02;;;3.33;;
77955;SDS011;67152;36.266;32.294;2023-05-07T10:42:23;15.20;;;3.00;;
77955;SDS011;67152;36.266;32.294;2023-05-07T10:44:51;12.63;;;3.60;;
77955;SDS011;67152;36.266;32.294;2023-05-07T10:52:11;9.88;;;3.40;;
77955;SDS011;67152;36.266;32.294;2023-05-07T10:57:52;9.98;;;2.80;;
77955;SDS011;67152;36.266;32.294;2023-05-07T11:05:28;12.30;;;3.55;;
77955;SDS011;67152;36.266;32.294;2023-05-07T11:07:59;14.23;;;3.17;;
77955;SDS011;67152;36.266;32.294;2023-05-07T11:13:16;12.52;;;3.22;;
77955;SDS011;67152;36.266;32.294;2023-05-07T11:15:44;10.32;;;2.80;;
77955;SDS011;67152;36.266;32.294;2023-05-07T11:18:13;9.30;;;3.50;;
77955;SDS011;67152;36.266;32.294;2023-05-07T11:20:59;15.55;;;3.60;;
77955;SDS011;67152;36.266;32.294;2023-05-07T11:26:22;9.65;;;3.35;;
77955;SDS011;67152;36.266;32.294;2023-05-07T11:28:49;13.65;;;3.65;;
77955;SDS011;67152;36.266;32.294;2023-05-07T11:31:21;8.70;;;2.60;;
77955;SDS011;67152;36.266;32.294;2023-05-07T11:33:49;12.23;;;3.13;;
77955;SDS011;67152;36.266;32.294;2023-05-07T11:36:16;11.15;;;3.05;;
77955;SDS011;67152;36.266;32.294;2023-05-07T11:38:42;9.80;;;3.13;;
77955;SDS011;67152;36.266;32.294;2023-05-07T11:41:09;10.18;;;3.17;;
77955;SDS011;67152;36.266;32.294;2023-05-07T11:43:36;10.32;;;3.75;;
77955;SDS011;67152;36.266;32.294;2023-05-07T11:46:07;8.25;;;3.10;;
77955;SDS011;67152;36.266;32.294;2023-05-07T11:48:36;7.15;;;2.50;;
77955;SDS011;67152;36.266;32.294;2023-05-07T11:53:36;26.98;;;4.00;;
77955;SDS011;67152;36.266;32.294;2023-05-07T11:56:08;11.10;;;3.17;;
77955;SDS011;67152;36.266;32.294;2023-05-07T11:58:36;10.98;;;3.05;;
77955;SDS011;67152;36.266;32.294;2023-05-07T12:01:03;12.75;;;3.72;;
77955;SDS011;67152;36.266;32.294;2023-05-07T12:03:30;10.02;;;3.30;;
77955;SDS011;67152;36.266;32.294;2023-05-07T12:05:57;8.68;;;3.10;;
77955;SDS011;67152;36.266;32.294;2023-05-07T12:08:24;10.23;;;3.20;;
77955;SDS011;67152;36.266;32.294;2023-05-07T12:10:50;10.98;;;3.50;;
77955;SDS011;67152;36.266;32.294;2023-05-07T12:13:21;13.50;;;3.75;;
77955;SDS011;67152;36.266;32.294;2023-05-07T12:15:52;11.13;;;3.38;;
77955;SDS011;67152;36.266;32.294;2023-05-07T12:18:19;8.90;;;3.22;;
77955;SDS011;67152;36.266;32.294;2023-05-07T12:20:47;8.70;;;3.00;;
77955;SDS011;67152;36.266;32.294;2023-05-07T12:25:41;10.48;;;2.80;;
77955;SDS011;67152;36.266;32.294;2023-05-07T12:28:15;10.85;;;3.20;;
77955;SDS011;67152;36.266;32.294;2023-05-07T12:31:00;7.95;;;3.05;;
77955;SDS011;67152;36.266;32.294;2023-05-07T12:33:27;9.73;;;3.28;;
77955;SDS011;67152;36.266;32.294;2023-05-07T12:35:55;9.68;;;3.17;;
77955;SDS011;67152;36.266;32.294;2023-05-07T12:38:25;11.32;;;3.10;;
77955;SDS011;67152;36.266;32.294;2023-05-07T12:40:53;8.65;;;3.10;;
77955;SDS011;67152;36.266;32.294;2023-05-07T12:43:21;9.88;;;4.22;;
77955;SDS011;67152;36.266;32.294;2023-05-07T12:46:11;12.07;;;3.60;;
77955;SDS011;67152;36.266;32.294;2023-05-07T12:48:43;10.57;;;3.58;;
77955;SDS011;67152;36.266;32.294;2023-05-07T12:51:12;10.80;;;3.70;;
77955;SDS011;67152;36.266;32.294;2023-05-07T12:53:41;9.10;;;3.20;;
77955;SDS011;67152;36.266;32.294;2023-05-07T12:56:08;12.02;;;3.50;;
77955;SDS011;67152;36.266;32.294;2023-05-07T13:01:06;11.18;;;3.60;;
77955;SDS011;67152;36.266;32.294;2023-05-07T13:03:35;16.17;;;3.78;;
77955;SDS011;67152;36.266;32.294;2023-05-07T13:06:04;12.82;;;4.05;;
77955;SDS011;67152;36.266;32.294;2023-05-07T13:08:33;10.43;;;3.25;;
77955;SDS011;67152;36.266;32.294;2023-05-07T13:11:02;11.68;;;4.13;;
77955;SDS011;67152;36.266;32.294;2023-05-07T13:13:30;12.52;;;3.70;;
77955;SDS011;67152;36.266;32.294;2023-05-07T13:15:57;9.15;;;3.85;;
77955;SDS011;67152;36.266;32.294;2023-05-07T13:18:25;11.60;;;3.65;;
77955;SDS011;67152;36.266;32.294;2023-05-07T13:20:52;12.00;;;3.80;;
77955;SDS011;67152;36.266;32.294;2023-05-07T13:23:19;10.27;;;3.67;;
77955;SDS011;67152;36.266;32.294;2023-05-07T13:25:46;10.32;;;4.22;;
77955;SDS011;67152;36.266;32.294;2023-05-07T13:28:13;11.95;;;4.15;;
77955;SDS011;67152;36.266;32.294;2023-05-07T13:30:40;13.23;;;4.00;;
77955;SDS011;67152;36.266;32.294;2023-05-07T13:33:07;10.27;;;3.97;;
77955;SDS011;67152;36.266;32.294;2023-05-07T13:35:34;8.60;;;3.28;;
77955;SDS011;67152;36.266;32.294;2023-05-07T13:38:01;12.80;;;3.70;;
77955;SDS011;67152;36.266;32.294;2023-05-07T13:40:27;10.30;;;3.70;;
77955;SDS011;67152;36.266;32.294;2023-05-07T13:42:56;10.90;;;2.88;;
77955;SDS011;67152;36.266;32.294;2023-05-07T13:45:24;11.10;;;3.03;;
77955;SDS011;67152;36.266;32.294;2023-05-07T13:47:51;16.02;;;3.85;;
77955;SDS011;67152;36.266;32.294;2023-05-07T13:50:19;9.32;;;3.05;;
77955;SDS011;67152;36.266;32.294;2023-05-07T13:52:46;12.02;;;3.45;;
77955;SDS011;67152;36.266;32.294;2023-05-07T13:55:17;10.90;;;3.20;;
77955;SDS011;67152;36.266;32.294;2023-05-07T13:57:47;15.20;;;3.60;;
77955;SDS011;67152;36.266;32.294;2023-05-07T14:00:14;9.60;;;2.67;;
77955;SDS011;67152;36.266;32.294;2023-05-07T14:02:42;6.72;;;2.97;;
77955;SDS011;67152;36.266;32.294;2023-05-07T14:05:08;7.95;;;2.85;;
